Time;durP1;ratioP1;P1;durP2;ratioP2;P2;SDS_P1;SDS_P2;PMS_P1;PMS_P2;Temp;Humidity;BMP_temperature;BMP_pressure;BME280_temperature;BME280_humidity;BME280_pressure;Samples;Min_cycle;Max_cycle;Signal;HPM_P1;HPM_P2
2023/02/17 00:00:06;;;;;;;;;;;0.10;99.90;;;;;;5052175;28;20017;-77
2023/02/17 00:02:33;;;;;;;81.13;39.70;;;0.10;99.90;;;;;;5051466;28;20358;-77
2023/02/17 00:04:59;;;;;;;84.78;38.88;;;0.10;99.90;;;;;;5050255;28;20505;-76
2023/02/17 00:07:24;;;;;;;;;;;0.10;99.90;;;;;;5050658;28;20033;-77
2023/02/17 00:09:50;;;;;;;72.20;34.88;;;0.00;99.90;;;;;;5033261;28;19979;-76
2023/02/17 00:12:15;;;;;;;;;;;0.10;99.90;;;;;;5051792;28;20040;-76
2023/02/17 00:14:41;;;;;;;76.18;36.17;;;0.10;99.90;;;;;;5032931;28;20403;-76
2023/02/17 00:17:06;;;;;;;;;;;0.10;99.90;;;;;;5051658;28;20031;-77
2023/02/17 00:19:32;;;;;;;68.40;33.83;;;0.10;99.90;;;;;;5051105;28;20380;-76
2023/02/17 00:22:00;;;;;;;;;;;0.20;99.90;;;;;;5033358;28;20477;-76
2023/02/17 00:24:30;;;;;;;60.05;29.00;;;0.20;99.90;;;;;;5050821;28;19978;-75
2023/02/17 00:26:56;;;;;;;64.50;31.90;;;0.30;99.90;;;;;;5050945;28;20028;-74
2023/02/17 00:29:21;;;;;;;;;;;0.40;99.90;;;;;;5033213;28;20025;-75
2023/02/17 00:31:47;;;;;;;61.92;28.73;;;0.40;99.90;;;;;;5050572;28;19908;-76
2023/02/17 00:34:12;;;;;;;;;;;0.40;99.90;;;;;;5049962;28;20085;-76
2023/02/17 00:36:39;;;;;;;57.05;26.42;;;0.50;99.90;;;;;;5050876;28;19905;-77
2023/02/17 00:39:05;;;;;;;60.50;30.83;;;0.50;99.90;;;;;;5032995;28;20064;-76
2023/02/17 00:41:31;;;;;;;60.08;29.80;;;0.40;99.90;;;;;;5032720;28;20106;-76
2023/02/17 00:43:57;;;;;;;;;;;0.40;99.90;;;;;;5051148;28;20493;-76
2023/02/17 00:46:24;;;;;;;59.42;29.13;;;0.40;99.90;;;;;;5050289;28;19912;-76
2023/02/17 00:48:49;;;;;;;73.90;31.80;;;0.30;99.90;;;;;;5050334;28;20025;-76
2023/02/17 00:51:16;;;;;;;;;;;0.10;99.90;;;;;;5049558;28;20378;-75
2023/02/17 00:53:41;;;;;;;61.95;28.38;;;0.20;99.90;;;;;;5032508;28;19909;-75
2023/02/17 00:56:07;;;;;;;;;;;0.30;99.90;;;;;;5050871;28;20524;-76
2023/02/17 00:58:34;;;;;;;64.90;27.55;;;0.50;99.90;;;;;;5048921;28;19916;-75
2023/02/17 01:01:00;;;;;;;59.35;29.50;;;0.50;99.90;;;;;;5050416;28;20029;-76
2023/02/17 01:03:25;;;;;;;;;;;0.60;99.90;;;;;;5049411;28;20028;-75
2023/02/17 01:05:53;;;;;;;64.10;26.17;;;0.70;99.90;;;;;;5050195;28;19908;-76
2023/02/17 01:08:20;;;;;;;61.72;28.48;;;0.70;99.90;;;;;;5031891;28;20029;-76
2023/02/17 01:10:47;;;;;;;56.10;25.92;;;0.80;99.90;;;;;;5050203;28;20032;-76
2023/02/17 01:13:15;;;;;;;55.85;26.33;;;0.80;99.90;;;;;;5031986;28;20025;-75
2023/02/17 01:15:46;;;;;;;50.22;25.35;;;0.80;99.90;;;;;;5050001;28;20036;-75
2023/02/17 01:18:16;;;;;;;57.40;27.45;;;0.80;99.90;;;;;;5031987;28;20041;-75
2023/02/17 01:20:42;;;;;;;56.28;25.77;;;0.80;99.90;;;;;;5031622;28;20037;-75
2023/02/17 01:23:08;;;;;;;;;;;0.80;99.90;;;;;;5048918;28;20043;-76
2023/02/17 01:25:43;;;;;;;55.15;24.95;;;0.80;99.90;;;;;;5031724;28;19912;-75
2023/02/17 01:28:15;;;;;;;57.67;27.73;;;0.90;99.90;;;;;;5049806;28;20025;-76
2023/02/17 01:30:41;;;;;;;53.65;25.63;;;0.80;99.90;;;;;;5049730;28;20520;-76
2023/02/17 01:33:06;;;;;;;;;;;0.80;99.90;;;;;;5048512;28;20041;-75
2023/02/17 01:35:33;;;;;;;59.47;27.65;;;0.80;99.90;;;;;;5031485;28;19923;-76
2023/02/17 01:37:59;;;;;;;68.88;33.75;;;0.90;99.90;;;;;;5031638;28;20029;-77
2023/02/17 01:40:25;;;;;;;76.45;37.65;;;0.80;99.90;;;;;;5031540;28;20056;-76
2023/02/17 01:42:51;;;;;;;;;;;0.80;99.90;;;;;;5032692;28;20056;-76
2023/02/17 01:45:16;;;;;;;68.75;30.92;;;0.80;99.90;;;;;;5049394;28;20349;-76
2023/02/17 01:47:43;;;;;;;;;;;0.80;99.90;;;;;;5049911;28;20033;-76
2023/02/17 01:50:09;;;;;;;62.77;30.97;;;0.80;99.90;;;;;;5049256;28;19909;-75
2023/02/17 01:52:36;;;;;;;56.97;29.27;;;0.70;99.90;;;;;;5047939;28;20124;-75
2023/02/17 01:55:06;;;;;;;59.13;26.65;;;0.70;99.90;;;;;;5049290;28;20033;-76
2023/02/17 01:57:36;;;;;;;58.53;26.08;;;0.70;99.90;;;;;;5047686;28;20025;-75
2023/02/17 02:00:04;;;;;;;53.65;25.52;;;0.70;99.90;;;;;;5049124;28;20029;-76
2023/02/17 02:02:30;;;;;;;53.28;26.40;;;0.70;99.90;;;;;;5047206;28;20137;-74
2023/02/17 02:04:56;;;;;;;58.90;25.98;;;0.70;99.90;;;;;;5049100;28;20023;-76
2023/02/17 02:07:25;;;;;;;;;;;0.70;99.90;;;;;;5048675;28;20047;-75
2023/02/17 02:09:56;;;;;;;51.42;24.90;;;0.90;99.90;;;;;;5048958;28;19908;-75
2023/02/17 02:12:31;;;;;;;49.25;23.15;;;0.90;99.90;;;;;;5048700;28;20025;-75
2023/02/17 02:15:01;;;;;;;61.28;26.92;;;0.90;99.90;;;;;;5048799;28;20489;-75
2023/02/17 02:17:52;;;;;;;52.53;26.15;;;0.90;99.90;;;;;;5048792;28;20021;-76
2023/02/17 02:20:35;;;;;;;51.20;24.23;;;0.90;99.90;;;;;;5030353;28;20401;-76
2023/02/17 02:23:10;;;;;;;49.78;24.15;;;0.90;99.90;;;;;;5030816;28;20025;-76
2023/02/17 02:25:50;;;;;;;53.20;25.08;;;0.90;99.90;;;;;;5031287;28;20028;-77
2023/02/17 02:28:54;;;;;;;49.58;24.10;;;0.90;99.90;;;;;;5031116;28;20032;-76
2023/02/17 02:32:01;;;;;;;58.97;28.25;;;0.90;99.90;;;;;;5048637;28;20099;-76
2023/02/17 02:34:53;;;;;;;46.72;23.10;;;1.00;99.90;;;;;;4999935;28;20529;-76
2023/02/17 02:37:25;;;;;;;57.85;26.63;;;1.10;99.90;;;;;;5026691;28;20059;-76
2023/02/17 02:39:54;;;;;;;54.00;26.65;;;1.10;99.90;;;;;;5028582;28;20029;-77
2023/02/17 02:42:23;;;;;;;52.30;25.75;;;1.20;99.90;;;;;;5026995;28;20033;-76
2023/02/17 02:44:49;;;;;;;58.53;26.17;;;1.30;99.90;;;;;;5028468;28;20122;-75
2023/02/17 02:47:49;;;;;;;53.75;25.80;;;1.30;99.90;;;;;;5028577;28;20482;-75
2023/02/17 02:50:58;;;;;;;50.20;25.92;;;1.30;99.90;;;;;;5028091;28;20908;-75
2023/02/17 02:53:24;;;;;;;51.08;23.67;;;1.20;99.90;;;;;;5001257;28;20037;-78
2023/02/17 02:56:08;;;;;;;;;;;1.20;99.90;;;;;;5027099;28;20041;-76
2023/02/17 02:58:42;;;;;;;60.55;25.40;;;1.20;99.90;;;;;;5043128;28;19908;-76
2023/02/17 03:01:14;;;;;;;49.53;24.05;;;1.10;99.90;;;;;;5028406;28;20026;-76
2023/02/17 03:04:26;;;;;;;64.68;29.08;;;1.20;99.90;;;;;;5027148;28;20029;-76
2023/02/17 03:07:10;;;;;;;55.97;24.73;;;1.30;99.90;;;;;;5012240;28;20431;-76
2023/02/17 03:09:35;;;;;;;48.42;22.48;;;1.30;99.90;;;;;;5028532;28;20034;-77
2023/02/17 03:12:01;;;;;;;;;;;1.40;99.90;;;;;;5027655;28;20036;-76
2023/02/17 03:14:30;;;;;;;48.92;22.58;;;1.40;99.90;;;;;;5026959;28;19917;-77
2023/02/17 03:16:56;;;;;;;51.03;23.63;;;1.30;99.90;;;;;;5028202;28;20068;-76
2023/02/17 03:19:24;;;;;;;54.78;25.52;;;1.30;99.90;;;;;;5026360;28;20078;-76
2023/02/17 03:22:00;;;;;;;48.72;25.08;;;1.20;99.90;;;;;;5028064;28;20454;-76
2023/02/17 03:24:26;;;;;;;58.55;26.27;;;1.20;99.90;;;;;;5027915;28;20063;-77
2023/02/17 03:26:52;;;;;;;;;;;1.30;99.90;;;;;;5027184;28;20080;-75
2023/02/17 03:29:17;;;;;;;67.57;28.70;;;1.30;99.90;;;;;;5026684;28;19962;-76
2023/02/17 03:31:43;;;;;;;;;;;1.30;99.90;;;;;;5028411;28;20064;-76
2023/02/17 03:34:09;;;;;;;56.50;23.20;;;1.30;99.90;;;;;;5029791;28;19966;-77
2023/02/17 03:36:34;;;;;;;;;;;1.20;99.90;;;;;;5046817;28;20052;-77
2023/02/17 03:39:00;;;;;;;61.22;27.70;;;1.20;99.90;;;;;;5047811;28;19909;-77
2023/02/17 03:41:26;;;;;;;;;;;1.20;99.90;;;;;;5030491;28;20492;-76
2023/02/17 03:43:51;;;;;;;60.30;26.38;;;1.20;99.90;;;;;;5046739;28;19911;-77
2023/02/17 03:46:17;;;;;;;;;;;1.30;99.90;;;;;;5030106;28;20472;-76
2023/02/17 03:48:43;;;;;;;62.42;28.40;;;1.30;99.90;;;;;;5047848;28;19905;-77
2023/02/17 03:51:10;;;;;;;;;;;1.40;99.90;;;;;;5048117;28;20084;-76
2023/02/17 03:53:35;;;;;;;64.72;28.80;;;1.40;99.90;;;;;;5047936;28;19908;-77
2023/02/17 03:56:01;;;;;;;;;;;1.50;99.90;;;;;;5046968;28;20520;-77
2023/02/17 03:58:26;;;;;;;66.13;28.15;;;1.60;99.90;;;;;;5030001;28;20485;-78
2023/02/17 04:00:52;;;;;;;;;;;1.60;99.90;;;;;;5030416;28;20092;-77
2023/02/17 04:03:17;;;;;;;65.00;28.98;;;1.60;99.90;;;;;;5046550;28;19912;-76
2023/02/17 04:05:43;;;;;;;;;;;1.60;99.90;;;;;;5048343;28;20424;-77
2023/02/17 04:08:09;;;;;;;64.40;27.83;;;1.70;99.90;;;;;;5047566;28;20445;-77
2023/02/17 04:10:34;;;;;;;;;;;1.70;99.90;;;;;;5032023;28;20071;-76
2023/02/17 04:13:00;;;;;;;66.07;29.60;;;1.80;99.90;;;;;;5051345;28;19913;-77
2023/02/17 04:15:26;;;;;;;;;;;1.80;99.90;;;;;;5051646;28;20417;-77
2023/02/17 04:17:51;;;;;;;62.17;28.58;;;1.80;99.90;;;;;;5051212;28;20395;-77
2023/02/17 04:20:17;;;;;;;;;;;1.80;99.90;;;;;;5033380;28;20025;-77
2023/02/17 04:22:45;;;;;;;59.42;28.70;;;1.90;99.90;;;;;;5051126;28;19919;-78
2023/02/17 04:25:10;;;;;;;67.18;32.20;;;1.90;99.90;;;;;;5050891;28;20029;-78
2023/02/17 04:27:36;;;;;;;;;;;1.90;99.90;;;;;;5050069;28;20397;-77
2023/02/17 04:30:02;;;;;;;99.95;40.85;;;2.00;99.90;;;;;;5033016;28;20448;-77
2023/02/17 04:32:28;;;;;;;96.05;39.85;;;2.00;99.90;;;;;;5049330;28;20036;-78
2023/02/17 04:34:53;;;;;;;;;;;2.10;99.90;;;;;;5049954;28;20029;-76
2023/02/17 04:37:19;;;;;;;73.28;31.48;;;2.10;99.90;;;;;;5050606;28;19915;-76
2023/02/17 04:39:44;;;;;;;;;;;2.10;99.90;;;;;;5051208;28;20072;-76
2023/02/17 04:42:10;;;;;;;65.07;28.35;;;2.00;99.90;;;;;;5050749;28;19908;-76
2023/02/17 04:44:36;;;;;;;;;;;2.00;99.90;;;;;;5050954;28;20033;-76
2023/02/17 04:47:04;;;;;;;65.22;29.15;;;2.00;99.90;;;;;;5050328;28;19908;-76
2023/02/17 04:49:30;;;;;;;52.80;26.80;;;1.90;99.90;;;;;;5031737;28;20063;-76
2023/02/17 04:51:55;;;;;;;;;;;1.90;99.90;;;;;;5050520;28;20106;-75
2023/02/17 04:54:21;;;;;;;66.05;28.60;;;1.90;99.90;;;;;;5048925;28;20427;-77
2023/02/17 04:56:47;;;;;;;;;;;2.00;99.90;;;;;;5049889;28;20477;-76
2023/02/17 04:59:13;;;;;;;65.88;30.60;;;2.00;99.90;;;;;;5050441;28;19909;-76
2023/02/17 05:01:38;;;;;;;;;;;2.00;99.90;;;;;;5032804;28;20029;-76
2023/02/17 05:04:04;;;;;;;65.38;29.27;;;2.10;99.90;;;;;;5050435;28;19959;-77
2023/02/17 05:06:29;;;;;;;;;;;2.10;99.90;;;;;;5050536;28;20025;-76
2023/02/17 05:08:55;;;;;;;57.90;25.80;;;2.20;99.90;;;;;;5049824;28;19995;-76
2023/02/17 05:11:21;;;;;;;;;;;2.20;99.90;;;;;;5049524;28;20020;-76
2023/02/17 05:13:46;;;;;;;53.65;25.75;;;2.30;99.90;;;;;;5050133;28;19916;-76
2023/02/17 05:16:12;;;;;;;;;;;2.20;99.90;;;;;;5050421;28;20045;-76
2023/02/17 05:18:37;;;;;;;62.47;30.10;;;2.20;99.90;;;;;;5049852;28;19909;-75
2023/02/17 05:21:03;;;;;;;;;;;2.10;99.90;;;;;;5031968;28;20115;-77
2023/02/17 05:23:29;;;;;;;63.90;30.13;;;2.00;99.90;;;;;;5032203;28;19909;-76
2023/02/17 05:25:54;;;;;;;;;;;1.90;99.90;;;;;;5049011;28;20029;-76
2023/02/17 05:28:20;;;;;;;125.85;65.28;;;1.90;99.90;;;;;;5049687;28;19999;-77
2023/02/17 05:30:47;;;;;;;;;;;1.90;99.90;;;;;;5032422;28;20144;-75
2023/02/17 05:33:13;;;;;;;67.93;32.33;;;1.90;99.90;;;;;;5049603;28;19924;-77
2023/02/17 05:35:38;;;;;;;;;;;1.90;99.90;;;;;;5050061;28;20048;-76
2023/02/17 05:38:04;;;;;;;79.13;38.42;;;2.00;99.90;;;;;;5031433;28;20014;-76
2023/02/17 05:40:29;;;;;;;;;;;2.10;99.90;;;;;;5049788;28;20494;-77
2023/02/17 05:42:55;;;;;;;125.55;56.92;;;2.10;99.90;;;;;;5049540;28;20011;-76
2023/02/17 05:45:21;;;;;;;;;;;2.20;99.90;;;;;;5049782;28;20029;-76
2023/02/17 05:47:46;;;;;;;96.72;43.22;;;2.20;99.90;;;;;;5049381;28;19916;-77
2023/02/17 05:50:12;;;;;;;;;;;2.20;99.90;;;;;;5049613;28;20028;-77
2023/02/17 05:52:37;;;;;;;100.35;49.97;;;2.20;99.90;;;;;;5031491;28;19915;-76
2023/02/17 05:55:03;;;;;;;;;;;2.20;99.90;;;;;;5048311;28;20041;-76
2023/02/17 05:57:29;;;;;;;98.65;43.97;;;2.20;99.90;;;;;;5049202;28;19915;-76
2023/02/17 05:59:55;;;;;;;;;;;2.30;99.90;;;;;;5050042;28;20021;-76
2023/02/17 06:02:21;;;;;;;69.35;34.08;;;2.30;99.90;;;;;;5049140;28;19948;-75
2023/02/17 06:04:46;;;;;;;;;;;2.40;99.90;;;;;;5049605;28;20036;-76
2023/02/17 06:07:12;;;;;;;57.08;28.23;;;2.40;99.90;;;;;;5031338;28;19915;-75
2023/02/17 06:09:37;;;;;;;;;;;2.50;99.90;;;;;;5049509;28;20025;-76
2023/02/17 06:12:03;;;;;;;51.67;26.48;;;2.60;99.90;;;;;;5049008;28;20025;-77
2023/02/17 06:14:29;;;;;;;;;;;2.60;99.90;;;;;;5049131;28;20032;-76
2023/02/17 06:16:55;;;;;;;58.20;28.08;;;2.60;99.90;;;;;;5049119;28;19913;-77
2023/02/17 06:19:22;;;;;;;52.05;25.33;;;2.70;99.90;;;;;;5048991;28;20052;-76
2023/02/17 06:21:48;;;;;;;57.10;28.90;;;2.70;99.90;;;;;;5048861;28;20535;-77
2023/02/17 06:24:14;;;;;;;;;;;2.80;99.90;;;;;;5031372;28;20028;-77
2023/02/17 06:26:39;;;;;;;62.00;29.02;;;2.90;99.90;;;;;;5031000;28;19920;-78
2023/02/17 06:29:05;;;;;;;;;;;3.00;99.90;;;;;;5049115;28;20029;-76
2023/02/17 06:31:31;;;;;;;79.57;32.13;;;3.00;99.90;;;;;;5048358;28;19912;-76
2023/02/17 06:33:57;;;;;;;;;;;3.10;99.90;;;;;;5048351;28;20096;-77
2023/02/17 06:36:22;;;;;;;94.00;38.90;;;3.10;99.90;;;;;;5048417;28;20339;-77
2023/02/17 06:38:48;;;;;;;;;;;3.10;99.90;;;;;;5047594;28;20537;-77
2023/02/17 06:41:14;;;;;;;98.90;43.95;;;3.20;99.90;;;;;;5030805;28;19909;-74
2023/02/17 06:43:39;;;;;;;;;;;3.20;99.90;;;;;;5048885;28;20086;-76
2023/02/17 06:46:05;;;;;;;85.18;38.80;;;3.30;99.90;;;;;;5030614;28;19912;-75
2023/02/17 06:48:31;;;;;;;;;;;3.40;99.90;;;;;;5048665;28;20031;-79
2023/02/17 06:50:58;;;;;;;162.18;72.72;;;3.40;99.90;;;;;;5048335;28;19915;-76
2023/02/17 06:53:24;;;;;;;141.50;63.83;;;3.40;99.90;;;;;;5048276;28;20533;-76
2023/02/17 06:55:50;;;;;;;;;;;3.50;99.90;;;;;;5030728;28;20056;-76
2023/02/17 06:58:15;;;;;;;93.68;44.90;;;3.50;99.90;;;;;;5030530;28;20456;-77
2023/02/17 07:00:41;;;;;;;;;;;3.60;99.90;;;;;;5048794;28;20047;-77
2023/02/17 07:03:07;;;;;;;77.10;37.55;;;3.60;99.90;;;;;;5048372;28;19909;-77
2023/02/17 07:05:35;;;;;;;;;;;3.70;99.90;;;;;;5048981;28;20092;-76
2023/02/17 07:08:01;;;;;;;90.93;46.22;;;3.70;99.90;;;;;;5048317;28;20035;-76
2023/02/17 07:10:27;;;;;;;76.07;38.28;;;3.70;99.90;;;;;;5048070;28;20078;-77
2023/02/17 07:12:53;;;;;;;;;;;3.80;99.90;;;;;;5048739;28;20194;-77
2023/02/17 07:15:18;;;;;;;63.17;35.25;;;3.80;99.90;;;;;;5030168;28;19983;-75
2023/02/17 07:17:44;;;;;;;;;;;3.90;99.90;;;;;;5047272;28;20160;-78
2023/02/17 07:20:10;;;;;;;75.55;38.90;;;4.00;99.90;;;;;;5048236;28;19940;-76
2023/02/17 07:22:35;;;;;;;;;;;4.10;99.90;;;;;;5046868;28;20072;-76
2023/02/17 07:25:01;;;;;;;77.68;38.15;;;4.10;99.90;;;;;;5029965;28;19908;-76
2023/02/17 07:27:27;;;;;;;;;;;4.20;99.90;;;;;;5030423;28;20044;-76
2023/02/17 07:29:52;;;;;;;65.25;33.55;;;4.20;99.90;;;;;;5047996;28;19909;-77
2023/02/17 07:32:18;;;;;;;65.90;34.97;;;4.20;99.90;;;;;;5047570;28;20739;-77
2023/02/17 07:34:44;;;;;;;;;;;4.20;99.90;;;;;;5048178;28;20056;-77
2023/02/17 07:37:09;;;;;;;77.13;40.17;;;4.30;99.90;;;;;;5029983;28;19916;-76
2023/02/17 07:39:35;;;;;;;72.00;38.47;;;4.40;99.90;;;;;;5047696;28;20086;-77
2023/02/17 07:42:03;;;;;;;;;;;4.60;99.90;;;;;;5046948;28;20036;-76
2023/02/17 07:44:29;;;;;;;63.35;37.58;;;4.70;99.90;;;;;;5049893;28;19916;-76
2023/02/17 07:46:55;;;;;;;;;;;4.90;99.90;;;;;;5052227;28;20032;-76
2023/02/17 07:49:20;;;;;;;54.20;31.10;;;5.00;99.90;;;;;;5033825;28;20262;-77
2023/02/17 07:51:46;;;;;;;;;;;5.10;99.90;;;;;;5052015;28;20405;-75
2023/02/17 07:54:12;;;;;;;58.13;30.38;;;5.20;99.90;;;;;;5033704;28;19908;-76
2023/02/17 07:56:38;;;;;;;65.88;32.08;;;5.30;99.90;;;;;;5033488;28;20033;-77
2023/02/17 07:59:11;;;;;;;;;;;5.40;99.90;;;;;;5051894;28;20021;-76
2023/02/17 08:01:36;;;;;;;58.50;32.45;;;5.40;99.90;;;;;;5051525;28;19916;-76
2023/02/17 08:04:02;;;;;;;;;;;5.50;99.90;;;;;;5052003;28;20029;-76
2023/02/17 08:06:28;;;;;;;57.45;31.33;;;5.50;99.90;;;;;;5051082;28;19917;-77
2023/02/17 08:14:25;;;;;;;54.13;29.88;;;5.70;99.90;;;;;;5051182;28;20086;-77
2023/02/17 08:16:51;;;;;;;49.83;29.27;;;5.70;99.90;;;;;;5033351;28;20025;-76
2023/02/17 08:19:17;;;;;;;54.88;31.70;;;5.80;99.90;;;;;;5051048;28;20027;-77
2023/02/17 08:21:42;;;;;;;;;;;5.80;99.90;;;;;;5033445;28;20035;-76
2023/02/17 08:24:08;;;;;;;57.38;31.55;;;5.90;99.90;;;;;;5050595;28;20713;-76
2023/02/17 08:26:34;;;;;;;;;;;6.00;99.90;;;;;;5051074;28;20482;-76
2023/02/17 08:28:59;;;;;;;75.43;39.80;;;6.10;99.90;;;;;;5050802;28;19915;-76
2023/02/17 08:31:32;;;;;;;;;;;6.30;99.90;;;;;;5051400;28;20501;-76
2023/02/17 08:34:00;;;;;;;54.60;28.73;;;6.40;99.90;;;;;;5050568;28;20383;-76
2023/02/17 08:36:27;;;;;;;53.30;28.02;;;6.40;99.90;;;;;;5050691;28;20122;-76
2023/02/17 08:38:54;;;;;;;60.72;32.00;;;6.50;99.90;;;;;;5032851;28;20028;-77
2023/02/17 08:41:30;;;;;;;55.00;30.52;;;6.50;99.90;;;;;;5050635;28;20432;-76
2023/02/17 08:43:58;;;;;;;52.67;29.60;;;6.60;99.90;;;;;;5050913;28;20070;-76
2023/02/17 08:46:24;;;;;;;53.58;30.27;;;6.60;99.90;;;;;;5050501;28;20021;-77
2023/02/17 08:48:49;;;;;;;;;;;6.60;99.90;;;;;;5051112;28;20203;-76
2023/02/17 08:51:18;;;;;;;50.22;26.88;;;6.90;99.90;;;;;;5032845;28;20015;-76
2023/02/17 08:53:45;;;;;;;79.25;40.42;;;7.10;99.90;;;;;;5050139;28;20114;-76
2023/02/17 08:56:11;;;;;;;60.33;33.95;;;7.40;99.90;;;;;;5031598;28;20095;-78
2023/02/17 08:58:36;;;;;;;;;;;7.70;99.90;;;;;;5050546;28;20445;-77
2023/02/17 09:01:03;;;;;;;48.70;27.13;;;8.10;99.90;;;;;;5032412;28;19904;-77
2023/02/17 09:03:29;;;;;;;124.18;68.10;;;8.30;99.90;;;;;;5032450;28;20453;-76
2023/02/17 09:05:55;;;;;;;;;;;8.40;99.90;;;;;;5032880;28;20655;-76
2023/02/17 09:08:22;;;;;;;47.85;27.45;;;8.50;99.90;;;;;;5049939;28;19913;-76
2023/02/17 09:10:48;;;;;;;52.30;28.30;;;8.70;99.90;;;;;;5050277;28;20037;-76
2023/02/17 09:13:14;;;;;;;47.08;24.17;;;9.00;99.90;;;;;;5048799;28;20028;-76
2023/02/17 09:15:39;;;;;;;;;;;9.20;99.90;;;;;;5050496;28;20049;-75
2023/02/17 09:18:05;;;;;;;41.55;25.27;;;9.50;99.90;;;;;;5050070;28;19912;-77
2023/02/17 09:20:30;;;;;;;;;;;9.70;99.90;;;;;;5049043;28;20469;-77
2023/02/17 09:22:56;;;;;;;48.63;26.13;;;9.90;99.90;;;;;;5049765;28;20734;-76
2023/02/17 09:25:22;;;;;;;;;;;10.10;99.90;;;;;;5049164;28;20029;-76
2023/02/17 09:27:47;;;;;;;44.45;24.77;;;10.10;99.90;;;;;;5049962;28;19904;-77
2023/02/17 09:30:13;;;;;;;;;;;9.90;99.90;;;;;;5032390;28;20029;-76
2023/02/17 09:32:42;;;;;;;41.42;26.20;;;9.80;99.90;;;;;;5031781;28;20346;-76
2023/02/17 09:35:11;;;;;;;44.38;23.52;;;9.70;99.90;;;;;;5049459;28;20033;-76
2023/02/17 09:37:37;;;;;;;45.72;25.75;;;9.60;99.90;;;;;;5049729;28;20017;-76
2023/02/17 09:40:03;;;;;;;;;;;9.70;99.90;;;;;;5049605;28;20075;-77
2023/02/17 09:42:30;;;;;;;37.65;22.55;;;9.90;99.90;;;;;;5049452;28;19995;-77
2023/02/17 09:45:07;;;;;;;38.72;23.85;;;10.00;99.90;;;;;;5049224;28;20021;-76
2023/02/17 09:47:47;;;;;;;38.95;23.00;;;10.00;99.90;;;;;;5031522;28;20517;-76
2023/02/17 09:50:26;;;;;;;38.17;23.30;;;10.20;99.90;;;;;;5049408;28;20516;-75
2023/02/17 09:53:01;;;;;;;34.17;21.10;;;10.30;99.90;;;;;;5028614;28;20604;-76
2023/02/17 09:55:48;;;;;;;38.28;24.00;;;10.30;99.90;;;;;;5049234;28;20040;-76
2023/02/17 09:58:32;;;;;;;68.97;42.65;;;10.40;99.90;;;;;;5047887;28;20029;-76
2023/02/17 10:01:02;;;;;;;43.35;27.48;;;10.50;99.90;;;;;;5049067;28;20032;-77
2023/02/17 10:03:41;;;;;;;37.42;22.52;;;10.60;99.90;;;;;;5031327;28;20032;-77
2023/02/17 10:06:18;;;;;;;41.70;25.67;;;10.70;99.50;;;;;;5047847;28;20032;-77
2023/02/17 10:08:49;;;;;;;43.20;23.98;;;10.80;99.20;;;;;;5049169;28;20039;-76
2023/02/17 10:11:24;;;;;;;35.97;22.92;;;11.10;98.00;;;;;;5049040;28;20575;-77
2023/02/17 10:13:54;;;;;;;43.38;24.00;;;11.30;95.80;;;;;;5049005;28;20029;-76
2023/02/17 10:16:25;;;;;;;43.17;23.65;;;11.30;95.50;;;;;;5030454;28;20043;-77
2023/02/17 10:19:22;;;;;;;39.15;23.98;;;11.20;96.30;;;;;;5048958;28;20017;-76
2023/02/17 10:22:17;;;;;;;38.35;23.40;;;11.20;96.50;;;;;;5048840;28;20393;-77
2023/02/17 10:24:42;;;;;;;43.70;26.55;;;11.20;96.50;;;;;;5046323;28;20075;-76
2023/02/17 10:27:27;;;;;;;;;;;11.30;95.40;;;;;;5048751;28;20081;-77
2023/02/17 10:30:11;;;;;;;31.70;20.58;;;11.20;94.60;;;;;;5048569;28;19928;-76
2023/02/17 10:32:57;;;;;;;34.80;19.83;;;11.10;95.20;;;;;;5030226;28;20068;-77
2023/02/17 10:35:52;;;;;;;37.33;20.52;;;11.30;95.20;;;;;;5030779;28;20053;-77
2023/02/17 10:38:51;;;;;;;35.35;20.73;;;11.50;95.40;;;;;;5030454;28;20036;-77
2023/02/17 10:41:25;;;;;;;29.73;17.52;;;11.60;94.60;;;;;;5048406;28;20031;-76
2023/02/17 10:43:51;;;;;;;29.60;18.75;;;11.60;93.70;;;;;;5048446;28;20052;-76
2023/02/17 10:46:23;;;;;;;29.55;17.98;;;11.60;94.70;;;;;;5030145;28;20028;-76
2023/02/17 10:48:53;;;;;;;28.65;17.45;;;11.50;95.60;;;;;;5030600;28;20123;-76
2023/02/17 10:51:26;;;;;;;25.63;15.02;;;11.50;95.90;;;;;;5048245;28;20025;-77
2023/02/17 10:54:21;;;;;;;25.20;15.65;;;11.50;96.00;;;;;;5030554;28;20033;-76
2023/02/17 10:56:52;;;;;;;29.95;18.08;;;11.70;96.90;;;;;;5030438;28;20040;-76
2023/02/17 10:59:22;;;;;;;34.38;19.77;;;11.80;94.70;;;;;;5048455;28;20028;-76
2023/02/17 11:01:48;;;;;;;33.92;21.20;;;11.80;94.00;;;;;;5047035;28;20842;-76
2023/02/17 11:04:14;;;;;;;;;;;11.80;94.40;;;;;;5047391;28;20116;-76
2023/02/17 11:07:00;;;;;;;35.95;20.83;;;11.80;94.70;;;;;;5047881;28;19960;-77
2023/02/17 11:09:31;;;;;;;37.42;20.02;;;11.80;95.80;;;;;;5030255;28;20104;-77
2023/02/17 11:12:09;;;;;;;30.98;19.73;;;11.90;96.80;;;;;;5030551;28;20115;-76
2023/02/17 11:14:36;;;;;;;23.77;14.07;;;11.90;94.80;;;;;;5047727;28;20037;-77
2023/02/17 11:17:13;;;;;;;22.80;14.00;;;11.90;92.80;;;;;;5029919;28;20124;-76
2023/02/17 11:19:38;;;;;;;;;;;12.00;91.00;;;;;;5033361;28;20706;-76
2023/02/17 11:22:24;;;;;;;32.67;18.77;;;12.10;90.90;;;;;;5051814;28;19927;-77
2023/02/17 11:24:57;;;;;;;31.10;18.60;;;12.10;91.30;;;;;;5052738;28;20021;-76
2023/02/17 11:27:25;;;;;;;34.83;18.55;;;12.10;92.00;;;;;;5051875;28;20474;-77
2023/02/17 11:29:51;;;;;;;34.40;19.83;;;12.10;92.00;;;;;;5051796;28;20052;-77
2023/02/17 11:32:18;;;;;;;;;;;12.10;91.70;;;;;;5052408;28;20083;-76
2023/02/17 11:34:56;;;;;;;32.05;18.65;;;12.10;92.40;;;;;;5051732;28;19917;-77
2023/02/17 11:37:23;;;;;;;37.40;20.95;;;12.20;91.80;;;;;;5051987;28;20068;-77
2023/02/17 11:39:54;;;;;;;30.80;19.92;;;12.20;92.50;;;;;;5033829;28;20025;-76
2023/02/17 11:42:22;;;;;;;29.48;19.00;;;12.20;92.40;;;;;;5051683;28;20032;-76
2023/02/17 11:44:49;;;;;;;34.97;19.00;;;12.30;92.60;;;;;;5051744;28;20112;-75
2023/02/17 11:47:29;;;;;;;30.77;17.58;;;12.30;92.20;;;;;;5051843;28;20551;-76
2023/02/17 11:50:36;;;;;;;34.28;19.85;;;12.60;91.40;;;;;;5051768;28;20052;-77
2023/02/17 11:53:37;;;;;;;31.70;18.90;;;12.70;91.10;;;;;;5024289;28;20573;-76
2023/02/17 11:56:15;;;;;;;40.80;21.48;;;12.80;90.20;;;;;;5051616;28;20033;-77
2023/02/17 11:59:05;;;;;;;30.10;18.55;;;12.90;88.70;;;;;;5051489;28;20106;-76
2023/02/17 12:02:12;;;;;;;24.58;14.00;;;12.90;88.60;;;;;;5033563;28;20520;-76
2023/02/17 12:04:37;;;;;;;27.63;13.75;;;12.90;82.70;;;;;;4953803;28;20062;-77
2023/02/17 12:07:21;;;;;;;;;;;12.80;82.10;;;;;;4970458;28;20121;-77
2023/02/17 12:10:10;;;;;;;27.63;15.43;;;12.70;80.60;;;;;;5001757;28;20045;-77
2023/02/17 12:12:50;;;;;;;26.38;13.82;;;12.60;81.60;;;;;;5051084;28;20064;-77
2023/02/17 12:15:35;;;;;;;25.38;12.60;;;12.50;81.60;;;;;;5051224;28;20073;-76
2023/02/17 12:18:06;;;;;;;28.90;13.52;;;12.40;82.10;;;;;;5049893;28;20497;-76
2023/02/17 12:20:44;;;;;;;29.42;14.98;;;12.30;81.80;;;;;;5050851;28;20136;-76
2023/02/17 12:23:39;;;;;;;34.50;18.00;;;12.30;83.50;;;;;;5051024;28;20057;-76
2023/02/17 12:26:35;;;;;;;33.70;16.50;;;12.20;85.80;;;;;;5048377;28;20044;-76
2023/02/17 12:29:09;;;;;;;23.75;13.60;;;12.10;87.50;;;;;;5051017;28;20053;-76
2023/02/17 12:32:10;;;;;;;31.90;13.45;;;12.00;88.20;;;;;;5048510;28;20093;-76
2023/02/17 12:34:40;;;;;;;24.20;11.48;;;11.90;90.40;;;;;;5015584;28;20449;-77
2023/02/17 12:37:17;;;;;;;24.95;13.20;;;11.90;90.70;;;;;;5031117;28;20065;-76
2023/02/17 12:40:07;;;;;;;25.35;12.48;;;11.90;91.30;;;;;;5031008;28;20631;-77
2023/02/17 12:42:42;;;;;;;27.85;14.05;;;11.80;91.50;;;;;;4973132;28;20033;-76
2023/02/17 12:45:22;;;;;;;26.30;13.68;;;11.80;91.50;;;;;;5012567;28;20030;-77
2023/02/17 12:48:11;;;;;;;28.38;14.50;;;11.70;92.30;;;;;;5012749;28;20030;-76
2023/02/17 12:50:55;;;;;;;31.63;15.85;;;11.50;94.00;;;;;;5030379;28;20037;-77
2023/02/17 12:53:40;;;;;;;31.88;15.45;;;11.40;95.10;;;;;;5012859;28;20041;-77
2023/02/17 12:56:35;;;;;;;26.50;14.60;;;11.40;95.60;;;;;;5030590;28;20041;-76
2023/02/17 12:59:20;;;;;;;28.38;15.50;;;11.30;96.20;;;;;;5012473;28;20021;-76
2023/02/17 13:02:10;;;;;;;34.90;14.70;;;11.30;97.50;;;;;;5030380;28;20037;-76
2023/02/17 13:04:37;;;;;;;22.48;12.15;;;11.20;98.00;;;;;;5018740;28;20041;-76
2023/02/17 13:07:22;;;;;;;27.10;9.90;;;11.20;98.40;;;;;;5030333;28;20501;-75
2023/02/17 13:09:50;;;;;;;20.20;10.02;;;11.10;98.40;;;;;;5012805;28;20029;-77
2023/02/17 13:12:21;;;;;;;17.98;8.95;;;11.10;98.30;;;;;;5030017;28;20505;-76
2023/02/17 13:14:50;;;;;;;17.83;9.45;;;11.20;97.40;;;;;;5029885;28;20083;-76
2023/02/17 13:17:33;;;;;;;17.58;9.55;;;11.20;96.90;;;;;;5012360;28;20120;-76
2023/02/17 13:20:10;;;;;;;28.35;10.35;;;11.20;95.80;;;;;;5012146;28;20164;-77
2023/02/17 13:22:42;;;;;;;23.75;11.45;;;11.20;96.20;;;;;;5012040;28;20394;-77
2023/02/17 13:25:32;;;;;;;21.90;10.68;;;11.30;95.90;;;;;;5030045;28;20061;-76